createdAt,value
2023-04-17T00:00:14.847Z,8.46
2023-04-17T00:01:15.543Z,8.48
2023-04-17T00:02:16.226Z,8.46
2023-04-17T00:03:17.080Z,8.42
2023-04-17T00:04:17.333Z,8.41
2023-04-17T00:05:17.520Z,8.44
2023-04-17T00:06:17.626Z,8.42
2023-04-17T00:07:18.248Z,8.37
2023-04-17T00:08:18.952Z,8.30
2023-04-17T00:09:19.582Z,8.31
2023-04-17T00:10:20.204Z,8.31
2023-04-17T00:11:20.835Z,8.30
2023-04-17T00:12:21.469Z,8.34
2023-04-17T00:13:22.105Z,8.36
2023-04-17T00:14:22.743Z,8.33
2023-04-17T00:15:23.382Z,8.34
2023-04-17T00:16:24.082Z,8.34
2023-04-17T00:17:24.779Z,8.26
2023-04-17T00:18:25.413Z,8.31
2023-04-17T00:19:26.046Z,8.33
2023-04-17T00:20:26.673Z,8.26
2023-04-17T00:21:27.287Z,8.31
2023-04-17T00:22:27.912Z,8.30
2023-04-17T00:23:28.546Z,8.31
2023-04-17T00:24:29.167Z,8.26
2023-04-17T00:25:29.803Z,8.23
2023-04-17T00:26:30.425Z,8.28
2023-04-17T00:27:31.033Z,8.26
2023-04-17T00:28:31.655Z,8.28
2023-04-17T00:29:32.311Z,8.30
2023-04-17T00:30:32.937Z,8.30
2023-04-17T00:31:33.588Z,8.36
2023-04-17T00:32:34.331Z,8.33
2023-04-17T00:33:34.412Z,8.30
2023-04-17T00:34:35.056Z,8.26
2023-04-17T00:35:35.686Z,8.26
2023-04-17T00:36:36.324Z,8.24
2023-04-17T00:37:36.965Z,8.27
2023-04-17T00:38:37.585Z,8.24
2023-04-17T00:39:38.204Z,8.26
2023-04-17T00:40:38.830Z,8.26
2023-04-17T00:41:39.545Z,8.23
2023-04-17T00:42:39.701Z,8.24
2023-04-17T00:43:40.331Z,8.26
2023-04-17T00:44:40.963Z,8.23
2023-04-17T00:45:41.685Z,8.24
2023-04-17T00:46:41.771Z,8.26
2023-04-17T00:47:42.452Z,8.26
2023-04-17T00:48:43.107Z,8.26
2023-04-17T00:49:43.745Z,8.20
2023-04-17T00:50:44.390Z,8.23
2023-04-17T00:51:45.343Z,8.23
2023-04-17T00:52:45.702Z,8.24
2023-04-17T00:53:45.749Z,8.13
2023-04-17T00:54:46.389Z,8.19
2023-04-17T00:55:47.038Z,8.23
2023-04-17T00:56:47.653Z,8.24
2023-04-17T00:57:48.292Z,8.18
2023-04-17T00:58:48.924Z,8.13
2023-04-17T00:59:49.559Z,8.18
2023-04-17T01:00:50.226Z,8.19
2023-04-17T01:01:50.932Z,8.20
2023-04-17T01:02:51.165Z,8.23
2023-04-17T01:03:51.487Z,8.23
2023-04-17T01:04:51.657Z,8.24
2023-04-17T01:05:52.267Z,8.23
2023-04-17T01:06:52.892Z,8.18
2023-04-17T01:07:53.502Z,8.13
2023-04-17T01:08:54.123Z,8.18
2023-04-17T01:09:54.769Z,8.16
2023-04-17T01:10:55.395Z,8.18
2023-04-17T01:11:56.053Z,8.16
2023-04-17T01:15:34.066Z,8.15
2023-04-17T01:16:35.318Z,8.16
2023-04-17T01:17:35.363Z,8.13
2023-04-17T01:18:35.947Z,8.09
2023-04-17T01:19:36.499Z,8.12
2023-04-17T01:20:37.096Z,8.10
2023-04-17T01:21:37.664Z,8.09
2023-04-17T01:22:38.217Z,8.09
2023-04-17T01:23:38.309Z,8.13
2023-04-17T01:24:38.889Z,8.10
2023-04-17T01:25:39.435Z,8.13
2023-04-17T01:26:39.992Z,8.10
2023-04-17T01:27:40.540Z,8.12
2023-04-17T01:28:41.088Z,7.98
2023-04-17T01:29:41.641Z,8.08
2023-04-17T01:30:42.243Z,8.08
2023-04-17T01:31:42.235Z,8.12
2023-04-17T01:32:42.836Z,8.09
2023-04-17T01:33:42.819Z,8.05
2023-04-17T01:34:43.370Z,8.09
2023-04-17T01:35:43.959Z,8.05
2023-04-17T01:36:44.528Z,8.00
2023-04-17T01:37:45.086Z,8.06
2023-04-17T01:38:45.652Z,8.03
2023-04-17T01:39:46.212Z,8.03
2023-04-17T01:40:46.784Z,8.09
2023-04-17T01:41:47.348Z,8.12
2023-04-17T01:42:47.909Z,8.10
2023-04-17T01:43:48.460Z,8.13
2023-04-17T01:44:49.054Z,8.13
2023-04-17T01:45:49.637Z,8.12
2023-04-17T01:46:50.202Z,8.06
2023-04-17T01:47:50.850Z,8.13
2023-04-17T01:48:50.851Z,8.18
2023-04-17T01:49:51.394Z,8.13
2023-04-17T01:50:51.940Z,8.06
2023-04-17T01:51:52.523Z,8.13
2023-04-17T01:52:53.123Z,8.03
2023-04-17T01:53:53.698Z,8.08
2023-04-17T01:54:54.278Z,8.05
2023-04-17T01:55:54.874Z,8.10
2023-04-17T01:56:55.465Z,8.06
2023-04-17T01:57:56.059Z,8.10
2023-04-17T01:58:56.628Z,8.03
2023-04-17T01:59:57.213Z,8.00
2023-04-17T02:00:57.821Z,7.98
2023-04-17T02:01:58.457Z,8.05
2023-04-17T02:02:58.551Z,7.98
2023-04-17T02:03:58.701Z,8.00
2023-04-17T02:04:58.770Z,8.01
2023-04-17T02:05:59.349Z,8.08
2023-04-17T02:06:59.939Z,8.12
2023-04-17T02:08:00.493Z,8.03
2023-04-17T02:09:01.062Z,8.03
2023-04-17T02:10:01.658Z,7.97
2023-04-17T02:11:01.692Z,7.93
2023-04-17T02:12:02.261Z,7.98
2023-04-17T02:13:02.820Z,7.94
2023-04-17T02:14:03.374Z,7.94
2023-04-17T02:15:03.962Z,7.94
2023-04-17T02:16:04.550Z,7.85
2023-04-17T02:17:05.142Z,7.85
2023-04-17T02:18:05.716Z,7.70
2023-04-17T02:19:06.311Z,7.76
2023-04-17T02:20:06.933Z,7.75
2023-04-17T02:21:06.920Z,7.73
2023-04-17T02:22:07.496Z,7.75
2023-04-17T02:23:08.078Z,7.72
2023-04-17T02:24:08.645Z,7.56
2023-04-17T02:25:09.197Z,7.56
2023-04-17T02:26:09.777Z,7.57
2023-04-17T02:27:10.358Z,7.61
2023-04-17T02:28:10.927Z,7.72
2023-04-17T02:29:11.734Z,7.73
2023-04-17T02:30:11.933Z,7.76
2023-04-17T02:31:12.590Z,7.80
2023-04-17T02:32:12.578Z,7.82
2023-04-17T02:33:13.135Z,7.87
2023-04-17T02:34:13.673Z,7.90
2023-04-17T02:35:14.228Z,7.88
2023-04-17T02:36:14.785Z,7.90
2023-04-17T02:37:15.325Z,7.91
2023-04-17T02:38:15.935Z,7.91
2023-04-17T02:39:16.500Z,7.87
2023-04-17T02:40:17.075Z,8.01
2023-04-17T02:41:17.648Z,7.97
2023-04-17T02:42:18.239Z,8.03
2023-04-17T02:43:18.792Z,8.01
2023-04-17T02:44:19.335Z,8.00
2023-04-17T02:45:19.895Z,7.97
2023-04-17T02:46:20.478Z,8.00
2023-04-17T02:47:21.055Z,7.95
2023-04-17T02:48:21.633Z,7.91
2023-04-17T02:49:22.199Z,7.91
2023-04-17T02:50:22.780Z,7.94
2023-04-17T02:51:23.353Z,7.93
2023-04-17T02:52:23.893Z,7.91
2023-04-17T02:53:24.433Z,7.90
2023-04-17T02:54:24.982Z,7.77
2023-04-17T02:55:25.539Z,7.83
2023-04-17T02:56:26.090Z,7.76
2023-04-17T02:57:26.665Z,7.72
2023-04-17T02:58:27.227Z,7.75
2023-04-17T02:59:27.870Z,7.72
2023-04-17T03:00:27.752Z,7.70
2023-04-17T03:01:28.485Z,7.66
2023-04-17T03:02:28.615Z,7.66
2023-04-17T03:03:28.765Z,7.63
2023-04-17T03:04:28.864Z,7.72
2023-04-17T03:05:29.427Z,7.66
2023-04-17T03:06:29.984Z,7.66
2023-04-17T03:07:30.533Z,7.61
2023-04-17T03:08:33.076Z,7.67
2023-04-17T03:09:31.373Z,7.73
2023-04-17T03:10:31.931Z,7.75
2023-04-17T03:11:32.468Z,7.77
2023-04-17T03:12:33.012Z,7.79
2023-04-17T03:13:33.562Z,7.83
2023-04-17T03:14:34.138Z,7.87
2023-04-17T03:15:34.697Z,7.88
2023-04-17T03:16:35.322Z,7.90
2023-04-17T03:17:35.384Z,7.91
2023-04-17T03:18:35.386Z,7.91
2023-04-17T03:19:35.941Z,7.95
2023-04-17T03:20:36.560Z,7.85
2023-04-17T03:21:37.113Z,7.88
2023-04-17T03:22:37.686Z,7.93
2023-04-17T03:23:38.254Z,7.87
2023-04-17T03:24:38.800Z,7.88
2023-04-17T03:25:39.356Z,7.91
2023-04-17T03:26:39.919Z,7.85
2023-04-17T03:27:40.462Z,7.85
2023-04-17T03:28:41.010Z,7.90
2023-04-17T03:29:41.563Z,7.90
2023-04-17T03:30:42.112Z,7.87
2023-04-17T03:31:42.696Z,7.82
2023-04-17T03:32:43.330Z,7.83
2023-04-17T03:33:43.339Z,7.85
2023-04-17T03:34:43.910Z,7.88
2023-04-17T03:35:44.488Z,7.88
2023-04-17T03:36:45.042Z,7.79
2023-04-17T03:37:45.598Z,7.79
2023-04-17T03:38:46.157Z,7.85
2023-04-17T03:39:46.710Z,7.82
2023-04-17T03:40:47.308Z,7.82
2023-04-17T03:41:47.885Z,7.85
2023-04-17T03:42:48.462Z,7.83
2023-04-17T03:43:49.053Z,7.88
2023-04-17T03:44:49.645Z,7.90
2023-04-17T03:45:50.244Z,7.93
2023-04-17T03:46:50.812Z,7.97
2023-04-17T03:47:51.396Z,7.94
2023-04-17T03:48:51.980Z,7.87
2023-04-17T03:49:52.547Z,7.79
2023-04-17T03:50:53.099Z,7.83
2023-04-17T03:51:53.665Z,7.90
2023-04-17T03:52:54.222Z,7.87
2023-04-17T03:53:54.762Z,7.83
2023-04-17T03:54:55.316Z,7.87
2023-04-17T03:55:55.873Z,7.83
2023-04-17T03:56:56.439Z,7.85
2023-04-17T03:57:57.010Z,7.90
2023-04-17T03:58:57.571Z,7.87
2023-04-17T03:59:58.131Z,7.88
2023-04-17T04:00:58.714Z,7.88
2023-04-17T04:01:59.378Z,7.87
2023-04-17T04:02:59.605Z,7.83
2023-04-17T04:03:59.846Z,7.85
2023-04-17T04:04:59.966Z,7.80
2023-04-17T04:05:59.961Z,7.85
2023-04-17T04:07:00.500Z,7.85
2023-04-17T04:08:01.062Z,7.85
2023-04-17T04:09:01.607Z,7.85
2023-04-17T04:10:02.148Z,7.88
2023-04-17T04:11:02.727Z,7.79
2023-04-17T04:12:03.297Z,7.83
2023-04-17T04:13:03.863Z,7.85
2023-04-17T04:14:04.440Z,7.90
2023-04-17T04:15:04.994Z,7.90
2023-04-17T04:16:05.620Z,7.85
2023-04-17T04:17:05.585Z,7.90
2023-04-17T04:18:06.152Z,7.94
2023-04-17T04:19:06.754Z,7.93
2023-04-17T04:20:07.336Z,7.83
2023-04-17T04:21:07.910Z,7.91
2023-04-17T04:22:08.473Z,7.90
2023-04-17T04:23:09.042Z,7.83
2023-04-17T04:24:09.610Z,7.93
2023-04-17T04:25:10.248Z,7.90
2023-04-17T04:26:10.279Z,7.90
2023-04-17T04:27:10.817Z,7.90
2023-04-17T04:28:11.350Z,7.94
2023-04-17T04:29:12.129Z,7.93
2023-04-17T04:30:12.458Z,7.88
2023-04-17T04:31:13.059Z,7.88
2023-04-17T04:32:13.698Z,7.94
2023-04-17T04:33:13.667Z,7.94
2023-04-17T04:34:14.222Z,7.97
2023-04-17T04:35:14.804Z,7.94
2023-04-17T04:36:15.353Z,7.90
2023-04-17T04:37:16.136Z,7.87
2023-04-17T04:38:16.130Z,7.88
2023-04-17T04:39:16.692Z,7.87
2023-04-17T04:40:17.229Z,7.85
2023-04-17T04:41:17.778Z,7.91
2023-04-17T04:42:18.325Z,7.94
2023-04-17T04:43:21.668Z,7.97
2023-04-17T04:44:19.425Z,8.01
2023-04-17T04:45:19.991Z,8.00
2023-04-17T04:46:20.584Z,7.94
2023-04-17T04:47:21.182Z,7.94
2023-04-17T04:48:21.754Z,7.95
2023-04-17T04:49:22.320Z,7.97
2023-04-17T04:50:22.890Z,7.97
2023-04-17T04:51:23.440Z,7.98
2023-04-17T04:52:24.002Z,8.05
2023-04-17T04:53:24.574Z,8.05
2023-04-17T04:54:25.137Z,8.01
2023-04-17T04:55:25.720Z,8.00
2023-04-17T04:56:26.312Z,8.01
2023-04-17T04:57:26.873Z,8.03
2023-04-17T04:58:27.411Z,7.93
2023-04-17T04:59:27.966Z,8.01
2023-04-17T05:00:28.531Z,7.97
2023-04-17T05:01:29.192Z,7.94
2023-04-17T05:02:29.338Z,7.97
2023-04-17T05:03:29.469Z,8.00
2023-04-17T05:04:29.604Z,8.00
2023-04-17T05:05:29.653Z,8.05
2023-04-17T05:06:30.200Z,7.98
2023-04-17T05:07:30.773Z,8.03
2023-04-17T05:08:31.333Z,8.00
2023-04-17T05:09:31.872Z,7.98
2023-04-17T05:10:32.432Z,8.03
2023-04-17T05:11:32.977Z,7.98
2023-04-17T05:12:33.520Z,7.98
2023-04-17T05:13:34.068Z,7.95
2023-04-17T05:14:34.620Z,7.94
2023-04-17T05:15:35.166Z,8.00
2023-04-17T05:16:35.778Z,7.95
2023-04-17T05:17:35.802Z,8.05
2023-04-17T05:18:35.814Z,8.03
2023-04-17T05:19:36.377Z,7.98
2023-04-17T05:20:36.945Z,7.97
2023-04-17T05:21:37.507Z,7.98
2023-04-17T05:22:38.091Z,7.98
2023-04-17T05:23:38.654Z,8.01
2023-04-17T05:24:39.218Z,8.09
2023-04-17T05:25:39.809Z,8.05
2023-04-17T05:26:40.360Z,8.06
2023-04-17T05:27:40.929Z,8.09
2023-04-17T05:28:41.495Z,8.08
2023-04-17T05:29:42.077Z,8.16
2023-04-17T05:30:42.636Z,8.15
2023-04-17T05:31:43.324Z,8.18
2023-04-17T05:32:43.356Z,8.24
2023-04-17T05:33:43.960Z,8.18
2023-04-17T05:34:44.555Z,8.13
2023-04-17T05:35:45.105Z,8.13
2023-04-17T05:36:45.748Z,8.03
2023-04-17T05:37:45.774Z,8.05
2023-04-17T05:38:46.523Z,8.03
2023-04-17T05:39:46.529Z,8.12
2023-04-17T05:40:47.098Z,8.08
2023-04-17T05:41:47.651Z,8.03
2023-04-17T05:42:48.189Z,8.01
2023-04-17T05:43:48.756Z,8.00
2023-04-17T05:44:49.330Z,8.05
2023-04-17T05:45:49.935Z,8.08
2023-04-17T05:46:49.915Z,8.09
2023-04-17T05:47:50.536Z,8.06
2023-04-17T05:48:50.551Z,8.09
2023-04-17T05:49:51.120Z,8.12
2023-04-17T05:50:51.702Z,8.12
2023-04-17T05:51:52.264Z,8.08
2023-04-17T05:52:52.840Z,8.08
2023-04-17T05:53:53.431Z,8.10
2023-04-17T05:54:54.024Z,8.15
2023-04-17T05:55:54.597Z,8.15
2023-04-17T05:56:55.144Z,8.15
2023-04-17T05:57:58.029Z,8.13
2023-04-17T05:58:55.903Z,8.20
2023-04-17T05:59:56.469Z,8.24
2023-04-17T06:00:57.037Z,8.15
2023-04-17T06:01:57.648Z,8.06
2023-04-17T06:02:57.846Z,8.13
2023-04-17T06:03:58.416Z,8.12
2023-04-17T06:04:58.982Z,8.09
2023-04-17T06:05:59.109Z,8.09
2023-04-17T06:06:59.675Z,8.09
2023-04-17T06:08:00.250Z,8.13
2023-04-17T06:09:00.816Z,8.13
2023-04-17T06:10:01.437Z,8.13
2023-04-17T06:11:01.505Z,8.26
2023-04-17T06:12:01.518Z,8.19
2023-04-17T06:13:02.114Z,8.19
2023-04-17T06:14:02.686Z,8.23
2023-04-17T06:15:03.234Z,8.19
2023-04-17T06:16:03.805Z,8.23
2023-04-17T06:17:04.421Z,8.27
2023-04-17T06:18:04.518Z,8.20
2023-04-17T06:19:04.523Z,8.20
2023-04-17T06:20:05.114Z,8.27
2023-04-17T06:21:05.707Z,8.24
2023-04-17T06:22:06.286Z,8.24
2023-04-17T06:23:06.853Z,8.20
2023-04-17T06:24:07.439Z,8.20
2023-04-17T06:25:08.028Z,8.23
2023-04-17T06:26:08.594Z,8.26
2023-04-17T06:27:09.144Z,8.23
2023-04-17T06:28:09.714Z,8.26
2023-04-17T06:29:10.521Z,8.27
2023-04-17T06:30:11.671Z,8.30
2023-04-17T06:31:11.088Z,8.23
2023-04-17T06:32:11.676Z,8.18
2023-04-17T06:33:12.254Z,8.20
2023-04-17T06:34:12.823Z,8.20
2023-04-17T06:35:13.390Z,8.20
2023-04-17T06:36:13.961Z,8.20
2023-04-17T06:37:14.533Z,8.24
2023-04-17T06:38:15.108Z,8.27
2023-04-17T06:39:15.764Z,8.18
2023-04-17T06:40:15.782Z,8.27
2023-04-17T06:41:16.464Z,8.31
2023-04-17T06:42:16.466Z,8.30
2023-04-17T06:43:17.015Z,8.26
2023-04-17T06:44:17.592Z,8.31
2023-04-17T06:45:18.176Z,8.30
2023-04-17T06:46:18.792Z,8.28
2023-04-17T06:47:18.897Z,8.28
2023-04-17T06:48:18.913Z,8.33
2023-04-17T06:49:19.480Z,8.36
2023-04-17T06:50:20.028Z,8.30
2023-04-17T06:51:20.581Z,8.37
2023-04-17T06:52:21.160Z,8.41
2023-04-17T06:53:21.722Z,8.45
2023-04-17T06:54:22.280Z,8.48
2023-04-17T06:55:22.842Z,8.45
2023-04-17T06:56:23.420Z,8.42
2023-04-17T06:57:23.994Z,8.38
2023-04-17T06:58:24.544Z,8.42
2023-04-17T06:59:25.103Z,8.45
2023-04-17T07:00:25.688Z,8.51
2023-04-17T07:01:26.315Z,8.52
2023-04-17T07:02:26.536Z,8.53
2023-04-17T07:03:26.805Z,8.53
2023-04-17T07:04:26.890Z,8.53
2023-04-17T07:05:26.895Z,8.55
2023-04-17T07:06:27.467Z,8.52
2023-04-17T07:07:28.033Z,8.49
2023-04-17T07:08:28.603Z,8.63
2023-04-17T07:09:29.155Z,8.69
2023-04-17T07:10:29.736Z,8.76
2023-04-17T07:11:30.297Z,8.69
2023-04-17T07:12:30.857Z,8.71
2023-04-17T07:13:31.452Z,8.64
2023-04-17T07:14:31.473Z,8.61
2023-04-17T07:15:32.047Z,8.61
2023-04-17T07:16:32.673Z,8.56
2023-04-17T07:17:32.726Z,8.58
2023-04-17T07:18:32.722Z,8.53
2023-04-17T07:19:33.279Z,8.60
2023-04-17T07:20:33.826Z,8.61
2023-04-17T07:21:34.397Z,8.60
2023-04-17T07:22:34.972Z,8.63
2023-04-17T07:23:35.541Z,8.66
2023-04-17T07:24:36.108Z,8.66
2023-04-17T07:25:36.669Z,8.71
2023-04-17T07:26:37.222Z,8.69
2023-04-17T07:27:37.791Z,8.70
2023-04-17T07:28:38.372Z,8.74
2023-04-17T07:29:38.940Z,8.79
2023-04-17T07:30:39.506Z,8.88
2023-04-17T07:31:40.084Z,8.89
2023-04-17T07:32:40.127Z,8.89
2023-04-17T07:33:40.754Z,8.95
2023-04-17T07:34:40.743Z,9.02
2023-04-17T07:35:41.301Z,9.04
2023-04-17T07:36:41.858Z,9.04
2023-04-17T07:37:42.408Z,9.14
2023-04-17T07:38:42.961Z,9.23
2023-04-17T07:39:43.605Z,9.25
2023-04-17T07:40:43.496Z,9.28
2023-04-17T07:41:44.040Z,9.28
2023-04-17T07:42:44.543Z,9.28
2023-04-17T07:43:45.010Z,9.32
2023-04-17T07:44:45.508Z,9.37
2023-04-17T07:45:46.001Z,9.36
2023-04-17T07:46:46.526Z,9.34
2023-04-17T07:47:47.073Z,9.32
2023-04-17T07:48:47.614Z,9.36
2023-04-17T07:49:48.118Z,9.25
2023-04-17T07:50:48.582Z,9.23
2023-04-17T07:51:49.016Z,9.39
2023-04-17T07:52:49.481Z,9.44
2023-04-17T07:53:49.929Z,9.47
2023-04-17T07:54:50.374Z,9.48
2023-04-17T07:55:50.845Z,9.51
2023-04-17T07:56:51.286Z,9.59
2023-04-17T07:57:51.811Z,9.62
2023-04-17T07:58:52.279Z,9.65
2023-04-17T07:59:52.736Z,9.66
2023-04-17T08:00:53.225Z,9.66
2023-04-17T08:01:53.773Z,9.66
2023-04-17T08:02:54.407Z,9.66
2023-04-17T08:03:54.562Z,9.62
2023-04-17T08:04:54.677Z,9.62
2023-04-17T08:05:54.681Z,9.68
2023-04-17T08:06:54.731Z,9.69
2023-04-17T08:07:55.226Z,9.69
2023-04-17T08:08:55.682Z,9.66
2023-04-17T08:09:56.144Z,9.76
2023-04-17T08:10:56.703Z,9.82
2023-04-17T08:11:58.088Z,9.83
2023-04-17T08:12:57.072Z,9.87
2023-04-17T08:13:57.526Z,9.98
2023-04-17T08:14:57.990Z,9.91
2023-04-17T08:15:58.446Z,10.07
2023-04-17T08:16:58.972Z,10.10
2023-04-17T08:17:59.564Z,10.13
2023-04-17T08:18:59.532Z,10.10
2023-04-17T08:20:00.058Z,10.15
2023-04-17T08:21:00.552Z,10.05
2023-04-17T08:22:01.061Z,10.15
2023-04-17T08:23:01.649Z,10.19
2023-04-17T08:24:01.588Z,10.16
2023-04-17T08:25:02.193Z,10.19
2023-04-17T08:26:02.136Z,10.20
2023-04-17T08:27:02.643Z,10.16
2023-04-17T08:28:03.214Z,10.17
2023-04-17T08:29:03.737Z,10.07
2023-04-17T08:30:04.243Z,10.04
2023-04-17T08:31:04.806Z,9.99
2023-04-17T08:32:13.146Z,9.98
2023-04-17T08:33:04.936Z,9.97
2023-04-17T08:34:13.599Z,10.05
2023-04-17T08:35:05.071Z,10.05
2023-04-17T08:36:08.468Z,10.07
2023-04-17T08:37:05.803Z,10.05
2023-04-17T08:38:06.317Z,9.99
2023-04-17T08:39:06.796Z,10.09
2023-04-17T08:40:07.267Z,10.04
2023-04-17T08:41:07.743Z,9.95
2023-04-17T08:42:08.436Z,10.09
2023-04-17T08:43:08.764Z,10.12
2023-04-17T08:44:09.282Z,10.07
2023-04-17T08:45:09.793Z,10.05
2023-04-17T08:46:10.320Z,10.02
2023-04-17T08:47:10.890Z,9.98
2023-04-17T08:48:11.364Z,9.98
2023-04-17T08:49:12.067Z,9.99
2023-04-17T08:50:12.066Z,10.04
2023-04-17T08:51:12.559Z,10.02
2023-04-17T08:52:13.061Z,10.05
2023-04-17T08:53:13.546Z,10.04
2023-04-17T08:54:14.017Z,9.95
2023-04-17T08:55:14.482Z,10.02
2023-04-17T08:56:14.961Z,10.07
2023-04-17T08:57:15.445Z,10.01
2023-04-17T08:58:15.919Z,9.91
2023-04-17T08:59:16.466Z,9.95
2023-04-17T09:00:16.989Z,9.95
2023-04-17T09:01:17.486Z,9.94
2023-04-17T09:02:18.147Z,9.92
2023-04-17T09:03:18.328Z,9.95
2023-04-17T09:04:18.537Z,10.01
2023-04-17T09:05:18.581Z,10.02
2023-04-17T09:06:19.117Z,10.02
2023-04-17T09:07:19.664Z,10.04
2023-04-17T09:08:20.202Z,10.10
2023-04-17T09:09:20.736Z,10.10
2023-04-17T09:10:21.436Z,10.15
2023-04-17T09:11:21.396Z,10.13
2023-04-17T09:12:21.909Z,10.19
2023-04-17T09:13:22.410Z,10.22
2023-04-17T09:14:24.126Z,10.25
2023-04-17T09:15:23.208Z,10.28
2023-04-17T09:16:23.793Z,10.22
2023-04-17T09:17:23.737Z,10.20
2023-04-17T09:18:24.223Z,10.12
2023-04-17T09:19:24.719Z,10.16
2023-04-17T09:20:25.195Z,10.13
2023-04-17T09:21:25.682Z,10.15
2023-04-17T09:22:26.163Z,10.13
2023-04-17T09:23:26.638Z,10.13
2023-04-17T09:24:27.118Z,10.10
2023-04-17T09:25:27.603Z,10.05
2023-04-17T09:26:28.094Z,10.04
2023-04-17T09:27:28.552Z,9.97
2023-04-17T09:28:28.997Z,9.98
2023-04-17T09:29:29.439Z,9.97
2023-04-17T09:30:29.928Z,9.98
2023-04-17T09:31:30.532Z,9.91
2023-04-17T09:32:30.483Z,9.89
2023-04-17T09:33:30.951Z,9.91
2023-04-17T09:34:31.550Z,9.82
2023-04-17T09:35:31.489Z,9.86
2023-04-17T09:36:32.222Z,9.87
2023-04-17T09:37:32.170Z,9.87
2023-04-17T09:38:32.653Z,9.83
2023-04-17T09:39:33.138Z,9.83
2023-04-17T09:40:33.608Z,9.83
2023-04-17T09:41:34.078Z,9.82
2023-04-17T09:42:34.586Z,9.84
2023-04-17T09:43:35.051Z,9.89
2023-04-17T09:44:35.577Z,9.86
2023-04-17T09:45:36.111Z,9.84
2023-04-17T09:46:36.236Z,9.77
2023-04-17T09:47:36.826Z,9.83
2023-04-17T09:48:37.326Z,9.83
2023-04-17T09:49:37.791Z,9.89
2023-04-17T09:50:39.080Z,9.91
2023-04-17T09:51:38.655Z,9.89
2023-04-17T09:52:39.154Z,9.94
2023-04-17T09:53:39.617Z,9.98
2023-04-17T09:54:40.167Z,10.01
2023-04-17T09:55:40.106Z,9.99
2023-04-17T09:56:40.570Z,10.01
2023-04-17T09:57:42.790Z,10.04
2023-04-17T09:58:41.499Z,10.10
2023-04-17T09:59:42.044Z,10.12
2023-04-17T10:00:42.422Z,10.15
2023-04-17T10:01:42.530Z,10.22
2023-04-17T10:02:42.748Z,10.17
2023-04-17T10:03:42.975Z,10.28
2023-04-17T10:04:43.261Z,10.30
2023-04-17T10:05:43.282Z,10.34
2023-04-17T10:06:43.841Z,10.25
2023-04-17T10:07:43.824Z,10.34
2023-04-17T10:08:44.363Z,10.30
2023-04-17T10:09:44.850Z,10.41
2023-04-17T10:10:45.349Z,10.42
2023-04-17T10:11:45.837Z,10.48
2023-04-17T10:12:46.324Z,10.53
2023-04-17T10:13:46.860Z,10.56
2023-04-17T10:14:47.417Z,10.51
2023-04-17T10:15:47.924Z,10.61
2023-04-17T10:16:48.482Z,10.71
2023-04-17T10:17:48.457Z,10.68
2023-04-17T10:18:48.976Z,10.64
2023-04-17T10:19:49.462Z,10.59
2023-04-17T10:20:49.964Z,10.64
2023-04-17T10:21:50.561Z,10.75
2023-04-17T10:22:50.517Z,10.79
2023-04-17T10:23:51.048Z,10.75
2023-04-17T10:24:51.045Z,10.68
2023-04-17T10:25:51.044Z,10.63
2023-04-17T10:26:51.597Z,10.69
2023-04-17T10:27:51.584Z,10.71
2023-04-17T10:28:52.151Z,10.60
2023-04-17T10:29:52.688Z,10.64
2023-04-17T10:30:53.178Z,10.57
2023-04-17T10:31:53.762Z,10.54
2023-04-17T10:32:53.781Z,10.68
2023-04-17T10:33:53.737Z,10.72
2023-04-17T10:34:54.237Z,10.72
2023-04-17T10:35:54.746Z,10.67
2023-04-17T10:36:55.225Z,10.60
2023-04-17T10:37:55.691Z,10.56
2023-04-17T10:38:56.155Z,10.56
2023-04-17T10:39:56.684Z,10.64
2023-04-17T10:40:58.445Z,10.67
2023-04-17T10:41:57.551Z,10.72
2023-04-17T10:42:58.006Z,10.71
2023-04-17T10:43:58.517Z,10.79
2023-04-17T10:44:59.009Z,10.86
2023-04-17T10:45:59.599Z,10.96
2023-04-17T10:46:59.570Z,11.05
2023-04-17T10:48:00.135Z,11.25
2023-04-17T10:49:00.164Z,11.35
2023-04-17T10:50:00.723Z,11.57
2023-04-17T10:51:00.631Z,11.55
2023-04-17T13:19:48.908Z,12.35
2023-04-17T13:20:50.073Z,12.35
2023-04-17T13:21:50.650Z,12.55
2023-04-17T13:22:51.210Z,12.67
2023-04-17T13:23:51.769Z,12.86
2023-04-17T13:24:52.328Z,13.23
2023-04-17T13:25:52.883Z,13.68
2023-04-17T13:26:53.429Z,14.12
2023-04-17T13:27:53.934Z,14.79
2023-04-17T13:28:54.452Z,15.11
2023-04-17T13:29:54.957Z,15.52
2023-04-17T13:30:55.476Z,15.64
2023-04-17T13:31:55.966Z,15.35
2023-04-17T13:32:56.483Z,14.97
2023-04-17T13:33:56.437Z,14.54
2023-04-17T13:34:58.720Z,14.28
2023-04-17T13:35:57.103Z,14.20
2023-04-17T13:36:57.575Z,14.26
2023-04-17T13:37:58.089Z,14.08
2023-04-17T13:38:58.545Z,13.92
2023-04-17T13:39:59.030Z,13.92
2023-04-17T13:40:59.472Z,13.68
2023-04-17T13:41:59.922Z,13.52
2023-04-17T13:43:00.463Z,13.37
2023-04-17T13:44:00.410Z,13.11
2023-04-17T13:45:00.900Z,12.93
2023-04-17T13:46:01.426Z,12.70
2023-04-17T13:47:01.910Z,12.45
2023-04-17T13:48:02.422Z,12.31
2023-04-17T13:49:02.944Z,12.20
2023-04-17T13:50:03.465Z,12.21
2023-04-17T13:51:04.030Z,12.13
2023-04-17T13:52:04.549Z,12.09
2023-04-17T13:53:05.054Z,12.00
2023-04-17T13:54:05.554Z,12.02
2023-04-17T13:55:06.050Z,11.94
2023-04-17T13:56:06.564Z,11.88
2023-04-17T13:57:07.091Z,11.90
2023-04-17T13:58:07.600Z,11.95
2023-04-17T13:59:08.136Z,11.78
2023-04-17T14:00:08.694Z,11.75
2023-04-17T14:01:09.246Z,11.77
2023-04-17T14:02:09.875Z,11.88
2023-04-17T14:03:10.098Z,11.78
2023-04-17T14:04:10.502Z,11.75
2023-04-17T14:05:10.649Z,11.86
2023-04-17T14:06:10.632Z,11.86
2023-04-17T14:07:11.158Z,11.83
2023-04-17T14:08:11.716Z,11.77
2023-04-17T14:09:12.549Z,11.72
2023-04-17T14:10:12.729Z,11.77
2023-04-17T14:11:13.283Z,11.88
2023-04-17T14:12:13.840Z,11.88
2023-04-17T14:13:14.433Z,11.84
2023-04-17T14:14:15.009Z,11.99
2023-04-17T14:15:15.578Z,12.07
2023-04-17T14:16:16.413Z,12.15
2023-04-17T14:17:16.445Z,12.20
2023-04-17T14:18:16.987Z,12.25
2023-04-17T14:19:18.006Z,12.36
2023-04-17T14:20:18.159Z,12.36
2023-04-17T14:21:18.718Z,12.20
2023-04-17T14:22:19.286Z,12.13
2023-04-17T14:23:19.822Z,12.22
2023-04-17T14:24:20.368Z,12.31
2023-04-17T14:25:20.906Z,12.42
2023-04-17T14:26:21.446Z,12.27
2023-04-17T14:27:22.004Z,12.43
2023-04-17T14:28:22.563Z,12.46
2023-04-17T14:29:23.100Z,12.57
2023-04-17T14:30:23.641Z,12.57
2023-04-17T14:31:24.226Z,12.60
2023-04-17T14:32:24.835Z,12.58
2023-04-17T14:33:24.848Z,12.62
2023-04-17T14:34:25.472Z,12.68
2023-04-17T14:35:25.501Z,12.79
2023-04-17T14:36:26.100Z,12.70
2023-04-17T14:37:26.680Z,12.54
2023-04-17T14:38:27.248Z,12.54
2023-04-17T14:39:28.392Z,12.55
2023-04-17T14:40:27.818Z,12.65
2023-04-17T14:41:28.385Z,12.64
2023-04-17T14:42:28.453Z,12.57
2023-04-17T14:43:29.052Z,12.50
2023-04-17T14:44:29.628Z,12.40
2023-04-17T14:45:30.195Z,12.43
2023-04-17T14:46:30.901Z,12.53
2023-04-17T14:47:30.952Z,12.72
2023-04-17T14:48:34.376Z,12.97
2023-04-17T14:49:31.735Z,12.93
2023-04-17T14:50:32.802Z,12.93
2023-04-17T14:51:33.219Z,12.93
2023-04-17T14:52:32.584Z,13.03
2023-04-17T14:53:33.192Z,13.22
2023-04-17T14:54:33.210Z,13.41
2023-04-17T14:55:33.790Z,13.57
2023-04-17T14:56:34.349Z,13.50
2023-04-17T14:57:34.945Z,13.39
2023-04-17T14:58:35.516Z,13.22
2023-04-17T14:59:36.086Z,13.12
2023-04-17T15:00:36.672Z,13.05
2023-04-17T15:01:37.333Z,13.16
2023-04-17T15:02:37.425Z,13.12
2023-04-17T15:03:37.632Z,13.12
2023-04-17T15:04:37.774Z,13.08
2023-04-17T15:05:38.302Z,13.12
2023-04-17T15:06:38.823Z,13.19
2023-04-17T15:07:39.352Z,13.18
2023-04-17T15:08:39.938Z,13.12
2023-04-17T15:09:40.466Z,13.08
2023-04-17T15:10:50.651Z,13.04
2023-04-17T15:11:41.199Z,13.03
2023-04-17T15:12:41.748Z,13.00
2023-04-17T15:13:42.359Z,13.03
2023-04-17T15:14:42.321Z,12.97
2023-04-17T15:15:42.873Z,13.04
2023-04-17T15:16:43.498Z,13.00
2023-04-17T15:17:43.604Z,13.03
2023-04-17T15:18:43.630Z,12.91
2023-04-17T15:19:44.159Z,12.91
2023-04-17T15:20:44.213Z,12.80
2023-04-17T15:21:44.857Z,12.79
2023-04-17T15:22:44.825Z,12.80
2023-04-17T15:23:45.355Z,12.60
2023-04-17T15:24:45.890Z,12.57
2023-04-17T15:25:46.440Z,12.67
2023-04-17T15:26:46.963Z,12.78
2023-04-17T15:27:47.514Z,12.80
2023-04-17T15:28:48.057Z,12.70
2023-04-17T15:29:48.634Z,12.78
2023-04-17T15:30:49.215Z,12.79
2023-04-17T15:31:49.779Z,12.87
2023-04-17T15:32:49.825Z,12.82
2023-04-17T15:33:50.397Z,12.85
2023-04-17T15:34:50.954Z,12.75
2023-04-17T15:35:51.496Z,12.70
2023-04-17T15:36:52.029Z,12.76
2023-04-17T15:37:52.562Z,12.76
2023-04-17T15:38:53.096Z,12.61
2023-04-17T15:39:53.631Z,12.58
2023-04-17T15:40:54.156Z,12.65
2023-04-17T15:41:54.694Z,12.58
2023-04-17T15:42:55.235Z,12.61
2023-04-17T15:43:55.765Z,12.55
2023-04-17T15:44:56.309Z,12.53
2023-04-17T15:45:56.904Z,12.49